createdAt,value
2022-09-04T00:04:44.236Z,101448.47
2022-09-04T00:15:19.483Z,101457.84
2022-09-04T00:26:13.023Z,101455.03
2022-09-04T00:36:38.681Z,101460.91
2022-09-04T00:47:39.310Z,101471.66
2022-09-04T00:58:29.281Z,101479.22
2022-09-04T01:09:01.271Z,101488.31
2022-09-04T01:19:44.842Z,101500.50
2022-09-04T01:30:17.377Z,101507.66
2022-09-04T01:40:49.779Z,101503.34
2022-09-04T01:51:23.360Z,101511.25
2022-09-04T02:02:09.274Z,101518.13
2022-09-04T02:12:42.832Z,101517.88
2022-09-04T02:23:15.410Z,101523.59
2022-09-04T02:33:39.342Z,101518.31
2022-09-04T02:44:33.316Z,101504.78
2022-09-04T02:55:11.658Z,101521.44
2022-09-04T03:05:59.045Z,101524.03
2022-09-04T03:16:40.246Z,101541.06
2022-09-04T03:27:02.631Z,101527.31
2022-09-04T03:37:59.319Z,101530.41
2022-09-04T03:48:40.066Z,101553.91
2022-09-04T03:59:08.299Z,101560.47
2022-09-04T04:09:45.400Z,101573.50
2022-09-04T04:20:22.101Z,101585.91
2022-09-04T04:30:57.019Z,101592.38
2022-09-04T04:41:30.886Z,101590.75
2022-09-04T04:52:18.555Z,101595.13
2022-09-04T05:03:01.352Z,101601.69
2022-09-04T05:13:34.210Z,101613.88
2022-09-04T05:24:05.421Z,101634.22
2022-09-04T05:34:27.649Z,101631.38
2022-09-04T05:45:27.713Z,101650.72
2022-09-04T05:55:52.306Z,101659.19
2022-09-04T06:06:45.907Z,101655.22
2022-09-04T06:17:22.256Z,101687.78
2022-09-04T06:28:19.579Z,101699.44
2022-09-04T06:39:00.102Z,101708.94
2022-09-04T06:49:36.424Z,101699.16
2022-09-04T07:00:08.264Z,101709.19
2022-09-04T07:10:58.687Z,101714.59
2022-09-04T07:21:48.727Z,101722.97
2022-09-04T07:32:15.475Z,101716.22
2022-09-04T07:42:52.309Z,101726.56
2022-09-04T07:53:25.695Z,101730.41
2022-09-04T08:04:00.902Z,101728.25
2022-09-04T08:14:30.076Z,101741.53
2022-09-04T08:25:13.546Z,101759.69
2022-09-04T08:35:41.190Z,101756.91
2022-09-04T08:46:33.792Z,101756.09
2022-09-04T08:57:17.073Z,101763.19
2022-09-04T09:07:47.556Z,101760.94
2022-09-04T09:18:32.043Z,101774.72
2022-09-04T09:29:16.326Z,101767.72
2022-09-04T09:40:02.332Z,101771.50
2022-09-04T09:50:56.425Z,101765.09
2022-09-04T10:01:38.719Z,101769.16
2022-09-04T10:12:18.923Z,101775.00
2022-09-04T10:22:59.547Z,101768.72
2022-09-04T10:33:42.607Z,101766.31
2022-09-04T10:44:24.321Z,101764.41
2022-09-04T10:55:19.995Z,101755.38
2022-09-04T11:05:44.485Z,101756.13
2022-09-04T11:16:21.144Z,101756.00
2022-09-04T11:26:47.693Z,101735.81
2022-09-04T11:37:27.897Z,101736.53
2022-09-04T11:48:08.214Z,101739.13
2022-09-04T11:59:06.255Z,101728.53
2022-09-04T12:09:48.003Z,101722.94
2022-09-04T12:20:19.536Z,101725.16
2022-09-04T12:30:59.343Z,101740.59
2022-09-04T12:41:23.879Z,101735.03
2022-09-04T12:51:52.379Z,101741.81
2022-09-04T13:02:45.091Z,101739.66
2022-09-04T13:13:51.966Z,101742.38
2022-09-04T13:24:19.678Z,101739.72
2022-09-04T13:35:09.399Z,101753.69
2022-09-04T13:45:40.936Z,101755.03
2022-09-04T13:56:19.570Z,101751.03
2022-09-04T14:06:41.180Z,101750.03
2022-09-04T14:17:07.159Z,101749.00
2022-09-04T14:27:45.927Z,101750.72
2022-09-04T14:38:32.622Z,101755.03
2022-09-04T14:49:06.220Z,101747.38
2022-09-04T14:59:41.306Z,101752.38
2022-09-04T15:10:18.812Z,101753.38
2022-09-04T15:20:47.947Z,101750.34
2022-09-04T15:31:15.264Z,101745.38
2022-09-04T15:41:43.195Z,101755.38
2022-09-04T15:52:24.418Z,101743.03
2022-09-04T16:03:12.746Z,101749.31
2022-09-04T16:13:44.018Z,101745.38
2022-09-04T16:24:09.216Z,101742.56
2022-09-04T16:34:37.971Z,101753.03
2022-09-04T16:45:20.227Z,101756.56
2022-09-04T16:55:49.019Z,101761.00
2022-09-04T17:06:33.762Z,101761.88
2022-09-04T17:17:30.997Z,101769.56
2022-09-04T17:29:11.307Z,101772.31
2022-09-04T17:41:31.291Z,101773.91
2022-09-04T17:49:55.552Z,101769.09
2022-09-04T18:00:21.372Z,101782.38
2022-09-04T18:10:46.058Z,101784.53
2022-09-04T18:21:19.400Z,101792.56
2022-09-04T18:37:13.235Z,101801.69
2022-09-04T18:49:54.098Z,101812.28
2022-09-04T18:54:01.502Z,101826.91
2022-09-04T19:04:32.895Z,101836.41
2022-09-04T19:14:55.830Z,101842.81
2022-09-04T19:25:24.447Z,101853.59
2022-09-04T19:35:58.215Z,101853.13
2022-09-04T19:46:46.091Z,101861.69
2022-09-04T19:57:32.310Z,101860.47
2022-09-04T20:08:04.835Z,101875.00
2022-09-04T20:18:37.490Z,101879.09
2022-09-04T20:29:10.153Z,101887.91
2022-09-04T20:39:41.773Z,101879.81
2022-09-04T20:52:58.060Z,101885.25
2022-09-04T21:03:20.092Z,101892.03
2022-09-04T21:11:54.643Z,101896.50
2022-09-04T21:22:34.821Z,101894.53
2022-09-04T21:33:27.921Z,101906.63
2022-09-04T21:44:04.731Z,101902.47
2022-09-04T21:54:37.401Z,101917.56
2022-09-04T22:05:25.955Z,101920.38
2022-09-04T22:16:03.695Z,101917.78
2022-09-04T22:26:34.449Z,101916.88
2022-09-04T22:37:33.802Z,101919.31
2022-09-04T22:48:10.494Z,101918.13
2022-09-04T22:59:27.130Z,101921.03
2022-09-04T23:13:59.558Z,101921.34
2022-09-04T23:26:32.799Z,101913.06
2022-09-04T23:32:07.108Z,101913.19
2022-09-04T23:42:34.446Z,101916.38
2022-09-04T23:53:16.640Z,101913.03
